Time;durP1;ratioP1;P1;durP2;ratioP2;P2;SDS_P1;SDS_P2;PMS_P1;PMS_P2;Temp;Humidity;BMP_temperature;BMP_pressure;BME280_temperature;BME280_humidity;BME280_pressure;Samples;Min_cycle;Max_cycle;Signal;HPM_P1;HPM_P2
2020/12/18 00:01:28;;;;;;;26.85;7.75;;;10.00;90.30;;;;;;5035308;28;20103;-81
2020/12/18 00:03:55;;;;;;;25.83;7.30;;;10.10;90.30;;;;;;5035402;28;20045;-81
2020/12/18 00:06:22;;;;;;;27.38;7.28;;;10.10;90.40;;;;;;5034060;28;20124;-80
2020/12/18 00:08:48;;;;;;;20.42;5.93;;;10.10;90.40;;;;;;5034030;28;20034;-81
2020/12/18 00:11:24;;;;;;;26.90;6.20;;;10.10;90.40;;;;;;5034066;28;20069;-81
2020/12/18 00:13:51;;;;;;;32.03;6.05;;;9.90;90.40;;;;;;5033578;28;20079;-81
2020/12/18 00:16:17;;;;;;;31.05;6.25;;;10.00;90.50;;;;;;5035007;28;20080;-80
2020/12/18 00:18:43;;;;;;;25.08;6.20;;;10.20;90.60;;;;;;5016926;28;20543;-81
2020/12/18 00:21:09;;;;;;;23.63;5.43;;;9.90;90.60;;;;;;5035087;28;20049;-79
2020/12/18 00:23:35;;;;;;;26.60;6.30;;;10.00;90.50;;;;;;5035149;28;20042;-80
2020/12/18 00:26:01;;;;;;;29.35;5.70;;;10.10;90.50;;;;;;5035158;28;20037;-80
2020/12/18 00:28:27;;;;;;;23.00;5.32;;;10.20;90.60;;;;;;5034825;28;20068;-80
2020/12/18 00:30:52;;;;;;;21.20;5.22;;;10.30;90.60;;;;;;5034947;28;20034;-80
2020/12/18 00:33:18;;;;;;;29.00;6.18;;;10.00;90.60;;;;;;5034574;28;20037;-80
2020/12/18 00:35:44;;;;;;;22.98;5.75;;;10.20;90.90;;;;;;5034795;28;20025;-79
2020/12/18 00:38:10;;;;;;;22.70;5.50;;;10.10;90.70;;;;;;5034322;28;20048;-79
2020/12/18 00:40:37;;;;;;;25.27;5.53;;;10.30;90.70;;;;;;5034188;28;20077;-80
2020/12/18 00:43:02;;;;;;;24.63;5.78;;;10.30;90.60;;;;;;5033434;28;20481;-81
2020/12/18 00:45:28;;;;;;;21.58;6.07;;;10.20;90.60;;;;;;5034334;28;20043;-80
2020/12/18 00:47:54;;;;;;;21.67;5.45;;;10.10;90.70;;;;;;5033309;28;20496;-79
2020/12/18 00:50:20;;;;;;;23.77;5.85;;;10.30;90.70;;;;;;5034277;28;20511;-81
2020/12/18 00:52:45;;;;;;;20.45;5.72;;;10.00;90.70;;;;;;5034543;28;20076;-81
2020/12/18 00:55:11;;;;;;;24.05;5.75;;;10.20;90.90;;;;;;5016642;28;20083;-81
2020/12/18 00:57:37;;;;;;;28.70;6.18;;;10.40;91.10;;;;;;5032994;28;20041;-81
2020/12/18 01:00:07;;;;;;;24.13;5.20;;;10.60;91.20;;;;;;5034744;28;20041;-81
2020/12/18 01:02:33;;;;;;;20.77;5.43;;;10.50;91.00;;;;;;5034364;28;20041;-81
2020/12/18 01:04:59;;;;;;;17.63;4.70;;;10.70;90.90;;;;;;5034463;28;20061;-81
2020/12/18 01:07:25;;;;;;;18.65;5.15;;;10.40;90.70;;;;;;5045867;23;20534;-81
2020/12/18 01:09:51;;;;;;;20.67;4.57;;;10.80;90.70;;;;;;5032781;28;20125;-81
2020/12/18 01:12:17;;;;;;;21.02;5.05;;;10.30;90.60;;;;;;5015552;28;20132;-81
2020/12/18 01:14:43;;;;;;;16.10;4.70;;;10.70;90.70;;;;;;5017240;28;20037;-81
2020/12/18 01:17:09;;;;;;;25.08;4.60;;;10.60;90.70;;;;;;5034036;28;20500;-81
2020/12/18 01:19:36;;;;;;;20.77;4.22;;;10.60;90.70;;;;;;5034167;28;20037;-81
2020/12/18 01:22:03;;;;;;;21.05;4.72;;;10.30;90.70;;;;;;5033754;28;20057;-81
2020/12/18 01:24:29;;;;;;;22.88;4.65;;;10.70;90.70;;;;;;5034170;28;20376;-81
2020/12/18 01:26:54;;;;;;;15.02;4.53;;;10.80;90.90;;;;;;5033985;28;20049;-82
2020/12/18 01:29:20;;;;;;;22.20;4.53;;;10.70;90.90;;;;;;5017520;28;20650;-82
2020/12/18 01:31:46;;;;;;;19.25;4.28;;;10.60;90.90;;;;;;5033832;28;20570;-81
2020/12/18 01:34:12;;;;;;;23.65;3.90;;;10.80;90.90;;;;;;5032788;28;20033;-81
2020/12/18 01:36:38;;;;;;;19.05;4.00;;;11.20;91.00;;;;;;5034207;28;20384;-81
2020/12/18 01:39:04;;;;;;;16.05;3.58;;;10.80;90.70;;;;;;5034150;28;20022;-81
2020/12/18 01:41:30;;;;;;;17.33;3.63;;;10.80;90.60;;;;;;5033734;28;20488;-81
2020/12/18 01:43:56;;;;;;;21.10;3.80;;;10.80;90.60;;;;;;5033710;28;20046;-81
2020/12/18 01:46:29;;;;;;;16.65;4.22;;;10.80;90.60;;;;;;5033897;28;20029;-81
2020/12/18 01:48:57;;;;;;;14.43;3.75;;;10.60;90.50;;;;;;5017102;28;20045;-81
2020/12/18 01:51:24;;;;;;;19.65;4.25;;;10.80;90.60;;;;;;5015708;28;20042;-81
2020/12/18 01:53:51;;;;;;;22.05;4.53;;;10.80;90.70;;;;;;5018100;28;20550;-81
2020/12/18 01:56:18;;;;;;;17.88;4.10;;;10.80;90.60;;;;;;5018148;28;20065;-81
2020/12/18 01:58:45;;;;;;;22.17;3.92;;;10.90;90.70;;;;;;5017398;28;20505;-81
2020/12/18 02:01:11;;;;;;;26.60;4.55;;;10.70;90.70;;;;;;5017855;28;20077;-80
2020/12/18 02:03:37;;;;;;;21.80;4.50;;;10.70;90.70;;;;;;5017766;28;20081;-81
2020/12/18 02:06:12;;;;;;;17.00;3.83;;;10.80;90.70;;;;;;5017251;28;20062;-81
2020/12/18 02:08:41;;;;;;;17.10;4.18;;;10.80;90.70;;;;;;5017219;28;20049;-81
2020/12/18 02:11:11;;;;;;;15.18;3.90;;;11.10;90.80;;;;;;5017835;28;20042;-80
2020/12/18 02:13:37;;;;;;;17.27;4.70;;;10.90;90.80;;;;;;5016151;28;20417;-80
2020/12/18 02:16:03;;;;;;;27.58;5.05;;;10.80;90.80;;;;;;5017438;28;20034;-80
2020/12/18 02:18:30;;;;;;;23.08;4.65;;;10.90;90.80;;;;;;4999365;28;20374;-81
2020/12/18 02:20:56;;;;;;;17.20;4.47;;;10.90;90.90;;;;;;4999611;28;20041;-81
2020/12/18 02:23:22;;;;;;;18.30;5.03;;;11.00;90.90;;;;;;5017193;28;20045;-80
2020/12/18 02:26:07;;;;;;;20.05;5.05;;;11.10;90.90;;;;;;4999792;28;20130;-80
2020/12/18 02:28:36;;;;;;;20.75;5.05;;;10.80;90.70;;;;;;5017620;28;20046;-80
2020/12/18 02:31:02;;;;;;;21.52;5.20;;;11.00;90.70;;;;;;5036757;28;20041;-80
2020/12/18 02:33:30;;;;;;;21.27;5.50;;;10.90;90.60;;;;;;5036801;28;20037;-81
2020/12/18 02:35:57;;;;;;;16.92;4.95;;;11.00;90.60;;;;;;5036676;28;20045;-81
2020/12/18 02:38:23;;;;;;;24.67;4.93;;;10.80;90.50;;;;;;5034687;28;20029;-81
2020/12/18 02:40:49;;;;;;;26.27;4.80;;;10.70;90.50;;;;;;5035083;28;20123;-81
2020/12/18 02:43:15;;;;;;;16.70;4.85;;;10.80;90.70;;;;;;5036785;28;20045;-81
2020/12/18 02:45:41;;;;;;;21.00;4.38;;;10.60;90.50;;;;;;5035897;28;20382;-80
2020/12/18 02:48:06;;;;;;;18.15;4.35;;;10.60;90.50;;;;;;5036584;28;20568;-80
2020/12/18 02:50:32;;;;;;;12.75;3.72;;;10.60;90.60;;;;;;5036383;28;20045;-81
2020/12/18 02:53:01;;;;;;;18.75;4.15;;;10.70;90.80;;;;;;5036737;28;20033;-81
2020/12/18 02:55:27;;;;;;;17.02;3.92;;;10.50;90.90;;;;;;5036466;28;20044;-80
2020/12/18 02:57:52;;;;;;;22.05;4.03;;;10.60;91.00;;;;;;5036373;28;20392;-81
2020/12/18 03:00:18;;;;;;;17.98;3.75;;;10.70;91.10;;;;;;5036665;28;20207;-81
2020/12/18 03:02:44;;;;;;;13.40;3.90;;;10.80;91.10;;;;;;5035020;28;20048;-80
2020/12/18 03:05:10;;;;;;;16.80;3.72;;;10.90;91.10;;;;;;5036344;28;20036;-81
2020/12/18 03:07:35;;;;;;;15.55;4.05;;;10.90;91.20;;;;;;5034908;28;20064;-80
2020/12/18 03:10:01;;;;;;;21.85;4.00;;;10.70;91.20;;;;;;5036276;28;20049;-81
2020/12/18 03:12:27;;;;;;;17.95;3.63;;;10.90;91.30;;;;;;5018763;28;20508;-80
2020/12/18 03:14:53;;;;;;;15.75;3.40;;;11.10;91.30;;;;;;5035185;28;20036;-81
2020/12/18 03:17:18;;;;;;;15.80;3.92;;;11.20;91.20;;;;;;5036235;28;20484;-81
2020/12/18 03:19:44;;;;;;;16.52;3.63;;;11.10;91.20;;;;;;5018482;28;20124;-80
2020/12/18 03:22:10;;;;;;;16.77;3.95;;;11.10;91.10;;;;;;5036493;28;20494;-81
2020/12/18 03:24:36;;;;;;;19.50;3.90;;;11.30;91.20;;;;;;5036163;28;20433;-81
2020/12/18 03:27:01;;;;;;;17.90;3.60;;;11.20;91.30;;;;;;5035910;28;20068;-81
2020/12/18 03:29:27;;;;;;;17.67;3.55;;;11.30;91.30;;;;;;5036130;28;20115;-80
2020/12/18 03:31:53;;;;;;;18.25;3.58;;;11.40;91.30;;;;;;5035743;28;20128;-81
2020/12/18 03:34:19;;;;;;;18.80;3.92;;;11.40;91.40;;;;;;5018377;28;20071;-81
2020/12/18 03:36:44;;;;;;;14.82;3.45;;;11.70;91.50;;;;;;5036038;28;20033;-81
2020/12/18 03:39:11;;;;;;;16.30;3.78;;;11.50;91.50;;;;;;5035813;28;20384;-80
2020/12/18 03:41:37;;;;;;;15.68;3.45;;;11.40;91.40;;;;;;5036372;28;20048;-80
2020/12/18 03:44:03;;;;;;;15.27;3.65;;;11.50;91.50;;;;;;5035560;28;20033;-81
2020/12/18 03:46:29;;;;;;;13.57;3.45;;;12.00;91.60;;;;;;5035888;28;20087;-81
2020/12/18 03:48:54;;;;;;;24.42;3.60;;;11.50;91.50;;;;;;5034508;28;20056;-80
2020/12/18 03:51:21;;;;;;;19.40;3.63;;;11.80;91.50;;;;;;5017886;28;20134;-80
2020/12/18 03:53:48;;;;;;;17.10;3.10;;;11.70;91.40;;;;;;5035860;28;20037;-81
2020/12/18 03:56:14;;;;;;;19.23;3.17;;;11.90;91.50;;;;;;5035482;28;20033;-81
2020/12/18 03:58:40;;;;;;;17.48;3.42;;;12.00;91.50;;;;;;5035305;28;20025;-80
2020/12/18 04:01:05;;;;;;;18.80;3.60;;;11.60;91.50;;;;;;5035356;28;20098;-80
2020/12/18 04:03:31;;;;;;;17.73;3.20;;;11.70;91.40;;;;;;5035476;28;20492;-80
2020/12/18 04:05:57;;;;;;;17.92;3.20;;;12.10;91.50;;;;;;5033838;28;20061;-80
2020/12/18 04:08:23;;;;;;;14.43;3.17;;;11.80;91.50;;;;;;5033979;28;20120;-81
2020/12/18 04:10:49;;;;;;;16.65;3.15;;;11.80;91.40;;;;;;5034812;28;20528;-81
2020/12/18 04:13:14;;;;;;;14.68;2.97;;;11.80;91.50;;;;;;5017214;28;20120;-81
2020/12/18 04:15:41;;;;;;;13.57;2.83;;;11.80;91.50;;;;;;5034972;28;20116;-81
2020/12/18 04:18:09;;;;;;;15.23;3.40;;;11.90;91.60;;;;;;5033268;28;20044;-80
2020/12/18 04:20:35;;;;;;;14.27;3.38;;;11.90;91.60;;;;;;5033613;28;20488;-80
2020/12/18 04:23:02;;;;;;;15.75;3.25;;;11.80;91.70;;;;;;5034892;28;20037;-81
2020/12/18 04:25:27;;;;;;;12.18;3.15;;;11.70;91.40;;;;;;5034773;28;20144;-81
2020/12/18 04:27:53;;;;;;;16.25;3.33;;;11.70;91.40;;;;;;5016514;28;20128;-80
2020/12/18 04:30:19;;;;;;;14.57;3.05;;;11.70;91.50;;;;;;5016735;28;20094;-81
2020/12/18 04:32:45;;;;;;;14.23;2.85;;;12.00;91.50;;;;;;5033456;28;20480;-81
2020/12/18 04:35:11;;;;;;;10.48;3.10;;;11.70;91.40;;;;;;5034240;28;20041;-80
2020/12/18 04:37:37;;;;;;;15.57;2.95;;;11.60;91.40;;;;;;5034762;28;20451;-81
2020/12/18 04:40:03;;;;;;;16.38;2.80;;;11.60;91.50;;;;;;5034371;28;20045;-80
2020/12/18 04:42:32;;;;;;;16.38;2.42;;;11.60;91.40;;;;;;5032983;28;20099;-80
2020/12/18 04:44:59;;;;;;;15.20;2.35;;;11.30;91.40;;;;;;5034579;28;20040;-80
2020/12/18 04:47:26;;;;;;;13.48;2.78;;;11.70;91.50;;;;;;5033882;28;20072;-80
2020/12/18 04:49:52;;;;;;;14.55;3.10;;;11.50;91.50;;;;;;5016862;28;20131;-80
2020/12/18 04:52:22;;;;;;;17.27;2.58;;;11.50;91.50;;;;;;5016770;28;20072;-80
2020/12/18 04:54:50;;;;;;;12.55;2.75;;;11.70;91.60;;;;;;5033055;28;20041;-80
2020/12/18 04:57:21;;;;;;;17.50;2.70;;;11.30;91.50;;;;;;5032498;28;20033;-80
2020/12/18 04:59:48;;;;;;;15.70;2.78;;;11.50;91.50;;;;;;5033776;28;20041;-80
2020/12/18 05:02:15;;;;;;;14.05;2.83;;;11.50;91.50;;;;;;5033521;28;20606;-80
2020/12/18 05:04:42;;;;;;;14.15;3.00;;;11.40;91.50;;;;;;5033158;28;20076;-80
2020/12/18 05:07:09;;;;;;;17.85;3.17;;;11.50;91.60;;;;;;5033668;28;20173;-80
2020/12/18 05:09:35;;;;;;;17.77;3.33;;;11.50;91.60;;;;;;5033978;28;20038;-80
2020/12/18 05:12:06;;;;;;;15.38;3.38;;;11.60;91.70;;;;;;5033693;28;20052;-80
2020/12/18 05:14:32;;;;;;;16.38;3.25;;;11.30;91.50;;;;;;5032734;28;20034;-80
2020/12/18 05:17:05;;;;;;;11.88;3.05;;;11.50;91.60;;;;;;5034058;28;20047;-79
2020/12/18 05:19:35;;;;;;;20.33;3.88;;;11.40;91.60;;;;;;5032793;28;20056;-80
2020/12/18 05:22:05;;;;;;;15.57;3.28;;;11.60;91.70;;;;;;5032578;28;20128;-80
2020/12/18 05:24:32;;;;;;;14.63;3.80;;;11.80;91.80;;;;;;5032411;28;20033;-80
2020/12/18 05:27:00;;;;;;;16.42;4.10;;;11.80;91.90;;;;;;5027914;28;20617;-80
2020/12/18 05:29:27;;;;;;;17.52;3.75;;;11.90;92.00;;;;;;5033756;28;20045;-81
2020/12/18 05:31:59;;;;;;;22.63;4.85;;;11.80;91.90;;;;;;5015986;28;20103;-80
2020/12/18 05:34:25;;;;;;;13.43;4.35;;;11.70;91.90;;;;;;5015976;28;20041;-81
2020/12/18 05:36:52;;;;;;;21.10;5.03;;;11.80;91.90;;;;;;5033978;28;20120;-81
2020/12/18 05:39:18;;;;;;;21.58;5.57;;;11.80;91.90;;;;;;5033727;28;20104;-81
2020/12/18 05:42:00;;;;;;;21.05;5.90;;;11.90;91.90;;;;;;5033366;28;20091;-81
2020/12/18 05:44:30;;;;;;;23.05;5.93;;;11.70;91.80;;;;;;5032342;28;20037;-81
2020/12/18 05:47:06;;;;;;;22.27;5.88;;;11.90;91.90;;;;;;5033508;28;20037;-81
2020/12/18 05:49:38;;;;;;;21.63;5.50;;;11.80;91.80;;;;;;5032291;28;20037;-80
2020/12/18 05:52:05;;;;;;;16.85;5.43;;;12.10;91.90;;;;;;5032379;28;20411;-81
2020/12/18 05:54:36;;;;;;;14.65;5.65;;;11.70;91.80;;;;;;5032264;28;20034;-78
2020/12/18 05:57:13;;;;;;;21.63;6.35;;;11.90;91.90;;;;;;5033639;28;20091;-76
2020/12/18 05:59:44;;;;;;;23.13;6.57;;;11.80;91.90;;;;;;5024716;28;20045;-76
2020/12/18 06:02:12;;;;;;;19.90;6.65;;;11.90;92.00;;;;;;5027450;28;20508;-75
2020/12/18 06:04:38;;;;;;;21.67;6.53;;;12.10;92.00;;;;;;5031176;28;20052;-76
2020/12/18 06:07:06;;;;;;;35.95;7.32;;;12.00;92.00;;;;;;5031056;28;20056;-76
2020/12/18 06:09:33;;;;;;;26.75;6.22;;;12.00;92.00;;;;;;5027856;28;20386;-76
2020/12/18 06:12:05;;;;;;;22.45;6.80;;;12.20;92.10;;;;;;5020039;28;20037;-76
2020/12/18 06:14:32;;;;;;;22.67;6.20;;;11.90;92.00;;;;;;5025649;28;20041;-76
2020/12/18 06:17:11;;;;;;;23.52;7.18;;;12.20;92.10;;;;;;5031618;28;20124;-78
2020/12/18 06:19:43;;;;;;;30.40;7.55;;;12.30;92.10;;;;;;5032172;28;20250;-76
2020/12/18 06:22:13;;;;;;;27.25;6.78;;;12.40;92.10;;;;;;5014750;28;20045;-76
2020/12/18 06:24:44;;;;;;;21.50;7.20;;;12.20;92.00;;;;;;5032184;28;20041;-74
2020/12/18 06:27:16;;;;;;;20.73;7.07;;;12.20;92.00;;;;;;5033303;28;20037;-76
2020/12/18 06:29:43;;;;;;;26.83;7.28;;;12.40;92.00;;;;;;5033698;28;20040;-76
2020/12/18 06:32:26;;;;;;;27.58;6.88;;;12.20;92.00;;;;;;5033293;28;20079;-77
2020/12/18 06:35:15;;;;;;;23.23;6.43;;;12.20;92.20;;;;;;5033049;28;20405;-76
2020/12/18 06:37:40;;;;;;;31.42;6.28;;;12.40;92.00;;;;;;5034452;28;20037;-77
2020/12/18 06:40:06;;;;;;;26.45;6.85;;;12.40;92.10;;;;;;5034849;28;20041;-77
2020/12/18 06:42:32;;;;;;;22.48;6.50;;;12.50;92.10;;;;;;5019849;28;20129;-76
2020/12/18 06:45:00;;;;;;;27.38;7.22;;;12.50;92.40;;;;;;5014868;28;20115;-77
2020/12/18 06:47:26;;;;;;;22.95;6.85;;;12.80;92.20;;;;;;5015551;28;20061;-77
2020/12/18 06:49:57;;;;;;;25.70;7.25;;;12.40;92.10;;;;;;5015546;28;20068;-77
2020/12/18 06:52:55;;;;;;;25.27;6.97;;;12.70;92.20;;;;;;5015658;28;20045;-77
2020/12/18 06:55:28;;;;;;;23.77;6.50;;;12.60;92.20;;;;;;5016353;28;20034;-77
2020/12/18 06:58:06;;;;;;;25.45;7.25;;;12.50;92.20;;;;;;5016176;28;20037;-77
2020/12/18 07:00:33;;;;;;;23.02;6.75;;;12.50;92.20;;;;;;5016257;28;20125;-77
2020/12/18 07:02:59;;;;;;;23.75;6.70;;;13.00;92.30;;;;;;5015494;28;20128;-77
2020/12/18 07:05:42;;;;;;;25.00;6.68;;;12.60;92.30;;;;;;5016264;28;20053;-76
2020/12/18 07:08:09;;;;;;;29.67;7.05;;;12.50;92.20;;;;;;4996654;28;20077;-77
2020/12/18 07:10:41;;;;;;;32.78;6.70;;;12.50;92.20;;;;;;4995906;28;20042;-77
2020/12/18 07:13:12;;;;;;;22.95;6.60;;;12.60;92.20;;;;;;4996452;28;20042;-77
2020/12/18 07:16:02;;;;;;;24.55;7.25;;;12.60;92.20;;;;;;4996735;28;20113;-77
2020/12/18 07:18:36;;;;;;;24.23;6.60;;;12.50;92.20;;;;;;4996674;28;20068;-77
2020/12/18 07:21:07;;;;;;;15.80;6.38;;;12.40;92.10;;;;;;4996301;28;20045;-79
2020/12/18 07:23:35;;;;;;;26.75;6.78;;;12.60;92.20;;;;;;4996383;28;20122;-79
2020/12/18 07:26:03;;;;;;;16.95;6.60;;;12.70;92.20;;;;;;4996452;28;20121;-77
2020/12/18 07:28:29;;;;;;;23.30;6.78;;;12.70;92.20;;;;;;4995991;28;20045;-77
2020/12/18 07:30:57;;;;;;;23.67;6.97;;;12.60;92.10;;;;;;4996473;28;20118;-74
2020/12/18 07:33:23;;;;;;;19.83;6.57;;;12.90;92.20;;;;;;4996518;28;20541;-74
2020/12/18 07:35:51;;;;;;;23.23;6.35;;;12.70;92.20;;;;;;4996263;28;20126;-75
2020/12/18 07:38:28;;;;;;;21.17;6.53;;;12.70;92.20;;;;;;4996196;28;20038;-74
2020/12/18 07:40:59;;;;;;;20.45;5.82;;;12.70;92.20;;;;;;4996567;28;20093;-74
2020/12/18 07:43:30;;;;;;;16.27;5.40;;;12.70;92.30;;;;;;4995777;28;20078;-74
2020/12/18 07:45:57;;;;;;;19.42;5.28;;;12.50;92.30;;;;;;4996547;28;20038;-74
2020/12/18 07:48:29;;;;;;;18.17;4.50;;;12.80;92.30;;;;;;4995965;28;20050;-74
2020/12/18 07:51:06;;;;;;;18.88;4.90;;;12.60;92.30;;;;;;4995965;28;20038;-74
2020/12/18 07:53:43;;;;;;;17.77;4.30;;;12.70;92.30;;;;;;4995651;28;20137;-75
2020/12/18 07:56:14;;;;;;;13.70;4.28;;;12.70;92.30;;;;;;4995443;28;20134;-75
2020/12/18 07:58:50;;;;;;;14.15;4.65;;;12.60;92.30;;;;;;4995856;28;20046;-75
2020/12/18 08:01:27;;;;;;;19.27;5.10;;;12.80;92.30;;;;;;4995800;28;20034;-75
2020/12/18 08:04:10;;;;;;;16.35;4.60;;;12.70;92.20;;;;;;4995408;28;20053;-74
2020/12/18 08:06:38;;;;;;;15.32;4.63;;;12.80;92.30;;;;;;5013620;28;20085;-75
2020/12/18 08:09:06;;;;;;;21.02;4.80;;;12.70;92.20;;;;;;5015663;28;20394;-75
2020/12/18 08:11:35;;;;;;;18.77;4.82;;;12.80;92.30;;;;;;5014995;28;20497;-75
2020/12/18 08:14:02;;;;;;;18.55;4.63;;;12.80;92.30;;;;;;5014955;28;20121;-75
2020/12/18 08:16:32;;;;;;;20.15;5.22;;;12.70;92.30;;;;;;5018284;28;20505;-76
2020/12/18 08:19:00;;;;;;;15.50;5.18;;;12.90;92.50;;;;;;5032160;28;20041;-77
2020/12/18 08:21:31;;;;;;;16.23;4.80;;;12.90;92.40;;;;;;5028143;28;20136;-76
2020/12/18 08:24:21;;;;;;;11.80;4.97;;;12.90;92.40;;;;;;5032844;28;20444;-76
2020/12/18 08:26:56;;;;;;;18.88;4.90;;;13.00;92.40;;;;;;5033260;28;20124;-76
2020/12/18 08:29:23;;;;;;;17.20;4.82;;;12.80;92.30;;;;;;5034817;28;20038;-76
2020/12/18 08:31:55;;;;;;;21.45;5.43;;;13.10;92.40;;;;;;5034465;28;20049;-76
2020/12/18 08:34:28;;;;;;;17.67;4.97;;;14.40;92.70;;;;;;5034868;28;20037;-76
2020/12/18 08:36:55;;;;;;;16.35;5.05;;;13.10;92.40;;;;;;5034594;28;20071;-76
2020/12/18 08:39:22;;;;;;;19.40;5.35;;;13.10;92.40;;;;;;5034656;28;20060;-77
2020/12/18 08:41:53;;;;;;;17.92;5.78;;;13.00;92.40;;;;;;5024511;28;20076;-76
2020/12/18 08:44:21;;;;;;;13.63;5.10;;;13.20;92.40;;;;;;5016266;28;20045;-75
2020/12/18 08:46:47;;;;;;;17.60;5.63;;;13.10;92.40;;;;;;5014845;28;20045;-76
2020/12/18 08:49:22;;;;;;;19.00;5.60;;;13.30;92.40;;;;;;5014726;28;20084;-75
2020/12/18 08:51:50;;;;;;;17.55;5.03;;;13.30;92.40;;;;;;5014644;28;20050;-76
2020/12/18 08:54:37;;;;;;;14.05;4.93;;;13.30;92.40;;;;;;5014435;28;20080;-76
2020/12/18 08:57:38;;;;;;;16.88;5.00;;;13.30;92.40;;;;;;5014200;28;20049;-76
2020/12/18 09:00:14;;;;;;;18.90;4.63;;;13.10;92.40;;;;;;4933845;29;20032;-76
2020/12/18 09:03:01;;;;;;;14.07;4.63;;;13.50;92.50;;;;;;5002436;28;20041;-75
2020/12/18 09:05:34;;;;;;;17.45;4.63;;;13.50;92.50;;;;;;5014063;28;20037;-76
2020/12/18 09:08:08;;;;;;;12.00;4.40;;;13.50;92.50;;;;;;5013900;28;20053;-75
2020/12/18 09:10:42;;;;;;;18.52;4.55;;;13.50;92.50;;;;;;5014090;28;20054;-76
2020/12/18 09:13:16;;;;;;;11.87;4.50;;;13.60;92.50;;;;;;5013766;28;20045;-76
2020/12/18 09:15:48;;;;;;;;;;;13.60;92.50;;;;;;5027647;28;20036;-76
2020/12/18 09:18:20;;;;;;;10.70;3.63;;;13.70;92.40;;;;;;5034064;28;19916;-75
2020/12/18 09:20:46;;;;;;;12.27;3.50;;;13.70;92.40;;;;;;5033805;28;20053;-75
2020/12/18 09:23:27;;;;;;;11.18;3.42;;;13.80;92.30;;;;;;5016008;28;20503;-76
2020/12/18 09:25:53;;;;;;;12.85;4.15;;;13.80;92.30;;;;;;5033968;28;20064;-74
2020/12/18 09:28:20;;;;;;;14.93;4.20;;;13.80;92.30;;;;;;5033568;28;20049;-74
2020/12/18 09:30:54;;;;;;;13.45;4.55;;;14.00;92.20;;;;;;5033725;28;20041;-74
2020/12/18 09:33:25;;;;;;;10.80;4.37;;;13.60;92.10;;;;;;5033979;28;20079;-75
2020/12/18 09:35:54;;;;;;;12.18;5.35;;;13.70;92.20;;;;;;5032193;28;20037;-74
2020/12/18 09:38:31;;;;;;;12.90;4.57;;;13.80;92.30;;;;;;5033481;28;20029;-74
2020/12/18 09:40:59;;;;;;;14.00;5.30;;;13.60;92.20;;;;;;5033293;28;20045;-74
2020/12/18 09:43:25;;;;;;;14.15;5.80;;;13.90;92.40;;;;;;5033275;28;20034;-74
2020/12/18 09:45:51;;;;;;;15.38;5.15;;;13.70;92.30;;;;;;5033873;28;20041;-74
2020/12/18 09:48:18;;;;;;;13.45;6.53;;;13.60;92.40;;;;;;5033948;28;20030;-74
2020/12/18 09:50:43;;;;;;;14.02;6.15;;;13.80;92.40;;;;;;5033493;28;20128;-74
2020/12/18 09:53:09;;;;;;;12.52;5.90;;;13.90;92.40;;;;;;5033558;28;20540;-74
2020/12/18 09:55:35;;;;;;;18.95;6.32;;;14.00;92.30;;;;;;5033719;28;20389;-74
2020/12/18 09:58:03;;;;;;;12.18;6.00;;;14.10;92.30;;;;;;5033487;28;20037;-75
2020/12/18 10:00:29;;;;;;;10.55;4.95;;;14.40;92.40;;;;;;5033337;28;20274;-75
2020/12/18 10:02:56;;;;;;;11.13;4.35;;;14.50;92.20;;;;;;5015282;28;20064;-75
2020/12/18 10:05:22;;;;;;;11.88;4.50;;;14.70;92.10;;;;;;5033125;28;20045;-75
2020/12/18 10:07:48;;;;;;;13.40;4.70;;;14.80;91.80;;;;;;5033297;28;20551;-76
2020/12/18 10:10:14;;;;;;;12.82;4.25;;;14.70;91.60;;;;;;5033253;28;20037;-74
2020/12/18 10:12:40;;;;;;;15.88;4.97;;;14.80;91.60;;;;;;5035200;28;20099;-73
2020/12/18 10:15:06;;;;;;;9.88;4.82;;;14.90;91.60;;;;;;5037286;28;20504;-74
2020/12/18 10:17:32;;;;;;;9.60;4.22;;;15.10;91.50;;;;;;5037113;28;20063;-74
2020/12/18 10:19:57;;;;;;;8.77;3.58;;;15.30;91.50;;;;;;5037036;28;20164;-75
2020/12/18 10:22:23;;;;;;;10.50;3.35;;;15.30;91.30;;;;;;5036805;28;20053;-74
2020/12/18 10:24:49;;;;;;;11.77;3.47;;;15.60;91.10;;;;;;5036890;28;20484;-74
2020/12/18 10:27:16;;;;;;;8.05;3.15;;;15.30;90.70;;;;;;5036546;28;20037;-74
2020/12/18 10:29:42;;;;;;;9.00;3.38;;;15.50;90.70;;;;;;5036410;28;20033;-74
2020/12/18 10:32:07;;;;;;;9.63;3.38;;;15.50;90.60;;;;;;5036881;28;20645;-75
2020/12/18 10:34:33;;;;;;;10.05;3.65;;;15.70;90.50;;;;;;5036385;28;20037;-74
2020/12/18 10:36:59;;;;;;;8.93;3.85;;;15.30;90.40;;;;;;5036574;28;20543;-75
2020/12/18 10:39:25;;;;;;;9.50;3.90;;;15.40;90.30;;;;;;5036906;28;20041;-75
2020/12/18 10:41:54;;;;;;;7.95;4.00;;;15.30;90.30;;;;;;5036355;28;20436;-74
2020/12/18 10:44:21;;;;;;;11.85;3.92;;;15.30;90.50;;;;;;5036325;28;20186;-74
2020/12/18 10:46:50;;;;;;;10.57;3.67;;;15.20;90.40;;;;;;5036670;28;20073;-74
2020/12/18 10:49:17;;;;;;;10.60;3.92;;;15.00;90.40;;;;;;5036437;28;20033;-74
2020/12/18 10:51:45;;;;;;;9.25;3.65;;;15.10;90.50;;;;;;5036479;28;20486;-74
2020/12/18 10:54:11;;;;;;;11.45;3.95;;;15.20;90.60;;;;;;5036470;28;20048;-74
2020/12/18 10:56:44;;;;;;;8.88;3.95;;;15.00;90.60;;;;;;5036311;28;20501;-74
2020/12/18 10:59:11;;;;;;;10.57;4.10;;;14.90;90.50;;;;;;5035971;28;20077;-73
2020/12/18 11:01:37;;;;;;;9.70;4.35;;;15.00;90.50;;;;;;5035916;28;20056;-73
2020/12/18 11:04:04;;;;;;;10.35;4.50;;;14.90;90.50;;;;;;5036299;28;20034;-73
2020/12/18 11:06:29;;;;;;;13.85;4.53;;;14.90;90.60;;;;;;5036147;28;20118;-74
2020/12/18 11:08:56;;;;;;;11.45;4.75;;;14.70;90.70;;;;;;5036751;28;20038;-74
2020/12/18 11:11:22;;;;;;;13.38;4.50;;;14.80;90.70;;;;;;5036451;28;20049;-74
2020/12/18 11:13:48;;;;;;;12.93;4.80;;;14.60;90.80;;;;;;5036106;28;20053;-74
2020/12/18 11:16:16;;;;;;;12.13;4.55;;;14.60;90.90;;;;;;5036377;28;20037;-74
2020/12/18 11:18:43;;;;;;;14.65;5.03;;;14.60;91.00;;;;;;5036163;28;20041;-74
2020/12/18 11:21:08;;;;;;;10.43;4.40;;;14.70;91.10;;;;;;5036430;28;20492;-74
2020/12/18 11:23:35;;;;;;;11.40;4.57;;;14.70;91.00;;;;;;5035495;28;20076;-73
2020/12/18 11:26:02;;;;;;;15.43;4.35;;;14.60;90.90;;;;;;5036093;28;20120;-74
2020/12/18 11:28:28;;;;;;;8.65;4.15;;;14.40;90.80;;;;;;5035596;28;20083;-74
2020/12/18 11:30:54;;;;;;;13.00;4.78;;;14.50;90.90;;;;;;5036079;28;20049;-73
2020/12/18 11:33:20;;;;;;;11.48;4.65;;;14.70;91.00;;;;;;5035949;28;20477;-73
2020/12/18 11:35:46;;;;;;;11.43;4.47;;;14.60;90.90;;;;;;5036221;28;20041;-73
2020/12/18 11:38:12;;;;;;;10.43;4.30;;;14.70;91.00;;;;;;5036163;28;20057;-74
2020/12/18 11:40:38;;;;;;;13.88;4.30;;;14.80;91.00;;;;;;5035947;28;20045;-74
2020/12/18 11:43:04;;;;;;;11.60;4.40;;;14.80;91.10;;;;;;5035651;28;20042;-73
2020/12/18 11:45:30;;;;;;;15.27;4.30;;;14.70;90.90;;;;;;5018298;28;20040;-74
2020/12/18 11:47:56;;;;;;;9.95;3.90;;;14.80;90.90;;;;;;5036089;28;20515;-74
2020/12/18 11:50:22;;;;;;;10.20;4.22;;;14.80;90.90;;;;;;5035775;28;20045;-74
2020/12/18 11:52:48;;;;;;;11.63;4.30;;;14.90;91.00;;;;;;5035810;28;20091;-73
2020/12/18 11:55:14;;;;;;;14.75;4.35;;;14.70;90.80;;;;;;5035882;28;20079;-73
2020/12/18 11:57:40;;;;;;;13.38;4.63;;;14.80;90.90;;;;;;5035675;28;20034;-74
2020/12/18 12:00:06;;;;;;;11.95;4.65;;;14.80;90.80;;;;;;5035360;28;20118;-74
2020/12/18 12:02:35;;;;;;;11.93;4.60;;;14.70;90.80;;;;;;5035569;28;20038;-74
2020/12/18 12:05:01;;;;;;;12.75;4.32;;;14.90;90.90;;;;;;5034739;28;20038;-74
2020/12/18 12:07:30;;;;;;;12.75;4.45;;;14.90;90.90;;;;;;5035527;28;20057;-74
2020/12/18 12:09:56;;;;;;;14.15;4.88;;;14.80;90.70;;;;;;5035247;28;20079;-74
2020/12/18 12:12:22;;;;;;;11.48;4.80;;;14.90;90.90;;;;;;5030974;28;20067;-74
2020/12/18 12:14:48;;;;;;;12.15;4.47;;;14.80;90.60;;;;;;5032825;28;20108;-74
2020/12/18 12:17:14;;;;;;;13.48;4.75;;;15.00;90.70;;;;;;5028015;28;20068;-75
2020/12/18 12:19:40;;;;;;;11.55;5.03;;;14.90;90.70;;;;;;5015178;28;20030;-74
2020/12/18 12:22:05;;;;;;;12.55;5.65;;;15.00;90.80;;;;;;5015123;28;20429;-74
2020/12/18 12:24:31;;;;;;;11.98;5.97;;;14.90;90.70;;;;;;5015379;28;20157;-74
2020/12/18 12:26:57;;;;;;;11.32;5.80;;;14.80;90.70;;;;;;5014886;28;20038;-74
2020/12/18 12:29:23;;;;;;;12.38;5.45;;;15.00;90.80;;;;;;5015392;28;20042;-74
2020/12/18 12:31:48;;;;;;;12.60;5.57;;;14.90;90.60;;;;;;5015165;28;20083;-75
2020/12/18 12:34:14;;;;;;;12.90;5.47;;;14.90;90.70;;;;;;4997385;28;20084;-75
2020/12/18 12:36:40;;;;;;;10.27;5.15;;;14.80;90.70;;;;;;5014115;28;20166;-75
2020/12/18 12:39:06;;;;;;;9.27;4.95;;;14.70;90.60;;;;;;4997194;28;20030;-75
2020/12/18 12:41:32;;;;;;;9.02;4.70;;;14.60;90.70;;;;;;5014411;28;20084;-75
2020/12/18 12:43:57;;;;;;;11.05;5.15;;;14.50;90.70;;;;;;5014744;28;20109;-75